createdAt,value
2018-02-27T00:01:40.903Z,10.48
2018-02-27T00:04:08.356Z,9.32
2018-02-27T00:06:35.868Z,13.20
2018-02-27T00:09:03.331Z,8.63
2018-02-27T00:11:30.834Z,15.57
2018-02-27T00:13:58.304Z,14.50
2018-02-27T00:16:25.767Z,10.13
2018-02-27T00:18:53.252Z,13.30
2018-02-27T00:21:20.808Z,7.22
2018-02-27T00:23:48.278Z,11.68
2018-02-27T00:26:16.509Z,17.98
2018-02-27T00:28:43.985Z,17.70
2018-02-27T00:31:11.440Z,15.63
2018-02-27T00:33:38.932Z,11.98
2018-02-27T00:36:07.159Z,16.83
2018-02-27T00:38:34.620Z,15.68
2018-02-27T00:41:02.089Z,14.20
2018-02-27T00:43:29.662Z,10.85
2018-02-27T00:45:57.132Z,13.18
2018-02-27T00:48:25.361Z,15.38
2018-02-27T00:50:52.847Z,17.40
2018-02-27T00:53:21.817Z,14.50
2018-02-27T00:55:49.288Z,15.23
2018-02-27T00:58:16.744Z,13.30
2018-02-27T01:00:44.213Z,20.25
2018-02-27T01:03:12.442Z,10.07
2018-02-27T01:05:40.041Z,11.60
2018-02-27T01:08:07.503Z,12.93
2018-02-27T01:10:35.062Z,10.68
2018-02-27T01:13:02.549Z,13.18
2018-02-27T01:15:30.044Z,13.35
2018-02-27T01:17:57.530Z,14.43
2018-02-27T01:20:24.997Z,12.57
2018-02-27T01:22:52.520Z,12.10
2018-02-27T01:25:19.984Z,11.65
2018-02-27T01:27:47.562Z,13.27
2018-02-27T01:30:15.133Z,14.63
2018-02-27T01:32:42.608Z,11.25
2018-02-27T01:35:10.133Z,12.20
2018-02-27T01:37:37.608Z,13.85
2018-02-27T01:40:05.153Z,12.05
2018-02-27T01:42:32.625Z,10.95
2018-02-27T01:45:00.881Z,13.52
2018-02-27T01:47:28.442Z,10.43
2018-02-27T01:49:55.896Z,12.07
2018-02-27T01:52:23.431Z,12.95
2018-02-27T01:54:50.885Z,24.17
2018-02-27T01:57:18.344Z,23.38
2018-02-27T01:59:45.829Z,30.05
2018-02-27T02:02:13.380Z,32.40
2018-02-27T02:04:42.357Z,19.25
2018-02-27T02:07:09.833Z,18.40
2018-02-27T02:09:37.388Z,22.05
2018-02-27T02:12:04.954Z,25.50
2018-02-27T02:14:32.505Z,17.75
2018-02-27T02:17:00.070Z,29.10
2018-02-27T02:19:27.630Z,24.95
2018-02-27T02:21:55.187Z,22.33
2018-02-27T02:24:22.660Z,13.23
2018-02-27T02:26:50.919Z,19.98
2018-02-27T02:29:18.479Z,20.67
2018-02-27T02:31:46.767Z,25.48
2018-02-27T02:34:14.234Z,24.60
2018-02-27T02:36:42.468Z,20.17
2018-02-27T02:39:09.928Z,13.57
2018-02-27T02:41:37.394Z,15.35
2018-02-27T02:44:04.968Z,13.70
2018-02-27T02:46:32.528Z,13.30
2018-02-27T02:49:00.047Z,15.27
2018-02-27T02:51:27.542Z,17.70
2018-02-27T02:53:55.019Z,20.62
2018-02-27T02:56:23.236Z,24.20
2018-02-27T02:58:50.710Z,24.30
2018-02-27T03:01:18.174Z,17.27
2018-02-27T03:03:45.646Z,16.77
2018-02-27T03:06:13.196Z,21.05
2018-02-27T03:08:40.659Z,12.55
2018-02-27T03:11:08.133Z,25.98
2018-02-27T03:13:36.356Z,17.02
2018-02-27T03:16:03.838Z,11.85
2018-02-27T03:18:31.311Z,23.38
2018-02-27T03:20:59.554Z,18.60
2018-02-27T03:23:27.016Z,13.02
2018-02-27T03:25:54.641Z,19.12
2018-02-27T03:28:22.111Z,16.75
2018-02-27T03:30:49.585Z,14.73
2018-02-27T03:33:17.046Z,19.10
2018-02-27T03:35:44.514Z,19.15
2018-02-27T03:38:11.988Z,18.10
2018-02-27T03:40:40.217Z,18.55
2018-02-27T03:43:07.697Z,13.55
2018-02-27T03:45:35.278Z,15.52
2018-02-27T03:48:03.529Z,21.98
2018-02-27T03:50:31.112Z,18.73
2018-02-27T03:52:59.341Z,22.60
2018-02-27T03:55:26.821Z,19.00
2018-02-27T03:57:54.279Z,13.60
2018-02-27T04:00:21.847Z,20.30
2018-02-27T04:02:49.321Z,10.80
2018-02-27T04:05:17.565Z,21.12
2018-02-27T04:07:45.030Z,13.98
2018-02-27T04:10:12.606Z,17.50
2018-02-27T04:12:40.841Z,15.07
2018-02-27T04:15:08.322Z,20.62
2018-02-27T04:17:35.787Z,12.55
2018-02-27T04:20:03.341Z,15.07
2018-02-27T04:22:30.812Z,15.45
2018-02-27T04:24:59.090Z,16.75
2018-02-27T04:27:27.351Z,21.70
2018-02-27T04:29:54.908Z,24.15
2018-02-27T04:32:22.378Z,12.95
2018-02-27T04:34:50.606Z,10.48
2018-02-27T04:37:18.074Z,16.02
2018-02-27T04:39:45.554Z,12.63
2018-02-27T04:42:13.113Z,18.52
2018-02-27T04:44:40.674Z,16.77
2018-02-27T04:47:08.225Z,12.02
2018-02-27T04:49:35.698Z,12.40
2018-02-27T04:52:03.966Z,13.80
2018-02-27T04:54:31.521Z,11.02
2018-02-27T04:56:58.998Z,13.18
2018-02-27T04:59:27.227Z,19.83
2018-02-27T05:01:54.697Z,14.30
2018-02-27T05:04:22.172Z,12.90
2018-02-27T05:06:50.446Z,15.77
2018-02-27T05:09:18.007Z,18.27
2018-02-27T05:11:45.480Z,14.52
2018-02-27T05:14:13.734Z,17.02
2018-02-27T05:16:41.220Z,12.82
2018-02-27T05:19:08.680Z,17.10
2018-02-27T05:21:36.136Z,14.43
2018-02-27T05:24:03.665Z,15.25
2018-02-27T05:26:31.124Z,13.20
2018-02-27T05:28:58.599Z,15.88
2018-02-27T05:31:26.857Z,16.90
2018-02-27T05:33:54.325Z,19.50
2018-02-27T05:36:22.572Z,15.00
2018-02-27T05:38:50.136Z,21.85
2018-02-27T05:41:17.704Z,12.70
2018-02-27T05:43:45.313Z,15.93
2018-02-27T05:46:12.827Z,20.10
2018-02-27T05:48:40.381Z,12.27
2018-02-27T05:51:07.840Z,11.40
2018-02-27T05:53:35.388Z,14.82
2018-02-27T05:56:02.870Z,17.05
2018-02-27T05:58:31.104Z,13.10
2018-02-27T06:00:58.693Z,20.70
2018-02-27T06:03:26.153Z,25.30
2018-02-27T06:05:54.397Z,14.00
2018-02-27T06:08:21.878Z,24.42
2018-02-27T06:10:49.345Z,19.25
2018-02-27T06:13:17.580Z,18.87
2018-02-27T06:15:45.051Z,18.10
2018-02-27T06:18:12.525Z,23.33
2018-02-27T06:20:39.984Z,28.77
2018-02-27T06:23:08.209Z,16.50
2018-02-27T06:25:35.704Z,25.62
2018-02-27T06:28:03.266Z,19.17
2018-02-27T06:30:30.729Z,17.52
2018-02-27T06:32:58.962Z,15.50
2018-02-27T06:35:26.457Z,31.17
2018-02-27T06:37:53.927Z,16.67
2018-02-27T06:40:22.157Z,17.58
2018-02-27T06:42:49.714Z,12.07
2018-02-27T06:45:17.180Z,20.45
2018-02-27T06:47:44.669Z,16.55
2018-02-27T06:50:12.913Z,17.12
2018-02-27T06:52:40.382Z,25.25
2018-02-27T06:55:07.856Z,18.37
2018-02-27T06:57:35.317Z,13.25
2018-02-27T07:00:03.578Z,13.52
2018-02-27T07:02:31.047Z,20.92
2018-02-27T07:04:59.361Z,16.98
2018-02-27T07:07:26.826Z,14.15
2018-02-27T07:09:54.297Z,18.00
2018-02-27T07:12:21.766Z,13.02
2018-02-27T07:14:49.257Z,20.65
2018-02-27T07:17:17.513Z,22.55
2018-02-27T07:19:44.990Z,17.52
2018-02-27T07:22:13.230Z,15.73
2018-02-27T07:24:40.704Z,20.30
2018-02-27T07:27:08.167Z,16.67
2018-02-27T07:29:35.631Z,11.07
2018-02-27T07:32:03.877Z,11.65
2018-02-27T07:34:31.343Z,18.75
2018-02-27T07:36:58.905Z,22.60
2018-02-27T07:39:27.951Z,30.20
2018-02-27T07:41:55.424Z,21.80
2018-02-27T07:44:22.894Z,12.48
2018-02-27T07:46:50.361Z,17.50
2018-02-27T07:49:17.929Z,11.48
2018-02-27T07:51:45.431Z,17.50
2018-02-27T07:54:12.889Z,14.70
2018-02-27T07:56:40.409Z,15.13
2018-02-27T07:59:07.961Z,12.30
2018-02-27T08:01:35.443Z,20.52
2018-02-27T08:04:03.683Z,45.63
2018-02-27T08:06:31.178Z,11.90
2018-02-27T08:08:59.431Z,14.63
2018-02-27T08:11:26.990Z,13.90
2018-02-27T08:13:54.593Z,11.20
2018-02-27T08:16:22.057Z,14.73
2018-02-27T08:18:49.537Z,10.32
2018-02-27T08:21:17.010Z,11.80
2018-02-27T08:23:44.506Z,10.13
2018-02-27T08:26:11.977Z,13.23
2018-02-27T08:28:39.493Z,14.80
2018-02-27T08:31:06.922Z,10.50
2018-02-27T08:33:34.381Z,10.95
2018-02-27T08:36:01.848Z,12.68
2018-02-27T08:38:29.345Z,12.27
2018-02-27T08:40:56.827Z,7.97
2018-02-27T08:43:24.294Z,12.40
2018-02-27T08:45:51.767Z,11.05
2018-02-27T08:48:19.228Z,16.62
2018-02-27T08:50:46.710Z,10.95
2018-02-27T08:53:14.936Z,16.35
2018-02-27T08:55:42.388Z,10.38
2018-02-27T08:58:09.853Z,22.70
2018-02-27T09:00:37.350Z,9.80
2018-02-27T09:03:05.594Z,9.25
2018-02-27T09:05:33.056Z,8.20
2018-02-27T09:08:00.540Z,15.05
2018-02-27T09:10:28.773Z,14.98
2018-02-27T09:12:56.249Z,13.35
2018-02-27T09:15:23.715Z,13.82
2018-02-27T09:17:51.276Z,12.65
2018-02-27T09:20:18.844Z,11.95
2018-02-27T09:22:46.436Z,14.00
2018-02-27T09:25:13.907Z,11.98
2018-02-27T09:27:41.874Z,14.45
2018-02-27T09:30:09.739Z,18.58
2018-02-27T09:32:37.346Z,13.05
2018-02-27T09:35:06.316Z,11.27
2018-02-27T09:37:33.839Z,14.75
2018-02-27T09:40:02.077Z,12.82
2018-02-27T09:42:29.542Z,13.13
2018-02-27T09:44:57.782Z,11.00
2018-02-27T09:47:26.546Z,13.23
2018-02-27T09:49:54.019Z,17.90
2018-02-27T09:52:21.509Z,12.07
2018-02-27T09:54:48.989Z,17.75
2018-02-27T09:57:17.240Z,11.95
2018-02-27T09:59:44.745Z,19.08
2018-02-27T10:02:12.213Z,14.52
2018-02-27T10:04:39.673Z,15.70
2018-02-27T10:07:07.130Z,14.02
2018-02-27T10:09:34.597Z,16.27
2018-02-27T10:12:02.056Z,15.98
2018-02-27T10:14:29.536Z,19.60
2018-02-27T10:16:56.996Z,10.60
2018-02-27T10:19:24.547Z,13.15
2018-02-27T10:21:52.021Z,13.82
2018-02-27T10:24:20.283Z,9.57
2018-02-27T10:26:47.753Z,15.75
2018-02-27T10:29:16.023Z,13.18
2018-02-27T10:31:43.449Z,8.27
2018-02-27T10:34:10.909Z,7.90
2018-02-27T10:36:38.390Z,11.88
2018-02-27T10:39:05.854Z,13.15
2018-02-27T10:41:34.081Z,14.85
2018-02-27T10:44:01.582Z,13.32
2018-02-27T10:46:29.050Z,7.80
2018-02-27T10:48:57.290Z,10.10
2018-02-27T10:51:24.850Z,9.48
2018-02-27T10:53:52.315Z,7.53
2018-02-27T10:56:19.769Z,5.53
2018-02-27T10:58:47.285Z,6.07
2018-02-27T11:01:20.479Z,7.20
2018-02-27T11:03:47.941Z,3.40
2018-02-27T11:06:15.420Z,4.65
2018-02-27T11:08:42.864Z,7.12
2018-02-27T11:11:10.332Z,4.55
2018-02-27T11:13:37.793Z,6.53
2018-02-27T11:16:05.259Z,4.32
2018-02-27T11:18:32.828Z,6.43
2018-02-27T11:21:00.348Z,4.68
2018-02-27T11:23:27.847Z,4.32
2018-02-27T11:25:55.303Z,3.33
2018-02-27T11:28:22.807Z,4.07
2018-02-27T11:30:50.281Z,6.82
2018-02-27T11:33:17.732Z,6.35
2018-02-27T11:35:45.201Z,5.43
2018-02-27T11:38:12.678Z,5.35
2018-02-27T11:40:40.150Z,5.90
2018-02-27T11:43:08.422Z,5.72
2018-02-27T11:45:36.657Z,8.23
2018-02-27T11:48:04.142Z,9.18
2018-02-27T11:50:31.696Z,6.15
2018-02-27T11:52:59.151Z,7.95
2018-02-27T11:55:26.710Z,6.18
2018-02-27T11:57:54.180Z,6.80
2018-02-27T12:00:21.724Z,5.68
2018-02-27T12:02:49.290Z,6.78
2018-02-27T12:05:16.772Z,8.13
2018-02-27T12:07:45.005Z,6.90
2018-02-27T12:10:12.498Z,10.80
2018-02-27T12:12:40.735Z,9.57
2018-02-27T12:15:08.220Z,7.53
2018-02-27T12:17:35.774Z,5.68
2018-02-27T12:20:03.228Z,7.28
2018-02-27T12:22:30.796Z,7.10
2018-02-27T12:24:58.250Z,5.93
2018-02-27T12:27:25.802Z,5.47
2018-02-27T12:29:53.264Z,9.45
2018-02-27T12:32:20.743Z,6.97
2018-02-27T12:34:48.969Z,9.10
2018-02-27T12:37:16.429Z,9.48
2018-02-27T12:39:43.889Z,10.40
2018-02-27T12:42:11.354Z,7.75
2018-02-27T12:44:38.930Z,9.15
2018-02-27T12:47:07.346Z,8.30
2018-02-27T12:49:35.536Z,13.77
2018-02-27T12:52:03.004Z,5.37
2018-02-27T12:54:30.485Z,4.85
2018-02-27T12:56:58.088Z,4.57
2018-02-27T12:59:25.560Z,7.20
2018-02-27T13:01:53.069Z,5.70
2018-02-27T13:04:20.613Z,7.15
2018-02-27T13:06:48.173Z,7.75
2018-02-27T13:09:15.742Z,6.35
2018-02-27T13:11:43.202Z,4.40
2018-02-27T13:14:10.749Z,7.68
2018-02-27T13:16:38.320Z,7.10
2018-02-27T13:19:05.773Z,8.82
2018-02-27T13:21:34.048Z,6.55
2018-02-27T13:24:01.493Z,7.15
2018-02-27T13:26:29.066Z,5.25
2018-02-27T13:28:56.527Z,5.78
2018-02-27T13:31:24.801Z,4.70
2018-02-27T13:33:52.252Z,7.93
2018-02-27T13:36:19.712Z,8.45
2018-02-27T13:38:47.168Z,15.50
2018-02-27T13:41:15.414Z,11.57
2018-02-27T13:43:42.873Z,8.40
2018-02-27T13:46:10.344Z,7.43
2018-02-27T13:48:45.759Z,6.15
2018-02-27T13:51:05.360Z,15.10
2018-02-27T13:53:32.911Z,9.02
2018-02-27T13:56:01.917Z,7.50
2018-02-27T13:58:29.369Z,7.85
2018-02-27T14:00:57.598Z,11.00
2018-02-27T14:03:25.071Z,20.98
2018-02-27T14:05:52.560Z,11.30
2018-02-27T14:08:20.111Z,10.23
2018-02-27T14:10:49.119Z,13.75
2018-02-27T14:13:16.673Z,14.20
2018-02-27T14:15:44.234Z,5.45
2018-02-27T14:18:11.787Z,8.40
2018-02-27T14:20:39.502Z,12.00
2018-02-27T14:23:06.992Z,9.82
2018-02-27T14:25:34.449Z,5.40
2018-02-27T14:28:01.908Z,10.10
2018-02-27T14:30:29.382Z,9.82
2018-02-27T14:32:56.937Z,11.93
2018-02-27T14:35:24.406Z,10.88
2018-02-27T14:37:51.949Z,6.93
2018-02-27T14:40:19.486Z,10.77
2018-02-27T14:42:47.682Z,8.27
2018-02-27T14:45:15.246Z,9.02
2018-02-27T14:47:42.797Z,7.40
2018-02-27T14:50:10.266Z,6.03
2018-02-27T14:52:37.747Z,6.85
2018-02-27T14:55:05.992Z,6.62
2018-02-27T14:57:33.445Z,8.32
2018-02-27T15:00:00.903Z,10.55
2018-02-27T15:02:28.361Z,11.10
2018-02-27T15:04:55.816Z,9.05
2018-02-27T15:07:23.274Z,7.80
2018-02-27T15:09:50.838Z,6.30
2018-02-27T15:12:18.306Z,9.65
2018-02-27T15:14:46.554Z,10.25
2018-02-27T15:17:14.021Z,5.85
2018-02-27T15:19:41.480Z,8.90
2018-02-27T15:22:08.936Z,9.73
2018-02-27T15:24:36.501Z,9.43
2018-02-27T15:27:04.768Z,7.10
2018-02-27T15:29:32.248Z,6.65
2018-02-27T15:32:00.485Z,13.05
2018-02-27T15:34:27.953Z,10.38
2018-02-27T15:36:55.522Z,5.55
2018-02-27T15:39:22.980Z,8.32
2018-02-27T15:41:50.442Z,9.57
2018-02-27T15:44:18.698Z,11.88
2018-02-27T15:46:46.167Z,6.18
2018-02-27T15:49:15.154Z,7.68
2018-02-27T15:51:42.620Z,8.90
2018-02-27T15:54:10.076Z,8.57
2018-02-27T15:56:37.683Z,12.02
2018-02-27T15:59:05.241Z,8.63
2018-02-27T16:01:32.705Z,9.02
2018-02-27T16:04:00.196Z,9.57
2018-02-27T16:06:27.675Z,9.68
2018-02-27T16:08:56.007Z,9.95
2018-02-27T16:11:23.480Z,9.05
2018-02-27T16:13:51.051Z,9.60
2018-02-27T16:16:18.532Z,13.10
2018-02-27T16:18:46.775Z,12.73
2018-02-27T16:21:14.295Z,9.32
2018-02-27T16:23:41.786Z,14.00
2018-02-27T16:26:09.245Z,7.53
2018-02-27T16:28:36.803Z,14.27
2018-02-27T16:31:04.262Z,7.78
2018-02-27T16:33:36.656Z,9.93
2018-02-27T16:36:04.889Z,13.30
2018-02-27T16:38:32.438Z,12.50
2018-02-27T16:40:59.907Z,21.90
2018-02-27T16:43:27.384Z,11.20
2018-02-27T16:45:54.940Z,18.98
2018-02-27T16:48:22.497Z,13.57
2018-02-27T16:50:49.979Z,19.73
2018-02-27T16:53:18.233Z,15.93
2018-02-27T16:55:45.792Z,25.23
2018-02-27T16:58:13.268Z,15.48
2018-02-27T17:00:41.527Z,23.67
2018-02-27T17:03:08.988Z,18.42
2018-02-27T17:05:36.471Z,18.40
2018-02-27T17:08:03.942Z,18.92
2018-02-27T17:10:31.408Z,19.27
2018-02-27T17:12:58.915Z,22.02
2018-02-27T17:15:26.421Z,16.87
2018-02-27T17:17:53.929Z,19.20
2018-02-27T17:20:21.395Z,25.08
2018-02-27T17:22:48.865Z,28.75
2018-02-27T17:25:17.172Z,28.55
2018-02-27T17:27:44.664Z,26.95
2018-02-27T17:30:12.148Z,25.42
2018-02-27T17:32:40.377Z,18.85
2018-02-27T17:35:07.849Z,23.15
2018-02-27T17:37:35.429Z,18.92
2018-02-27T17:40:04.427Z,23.70
2018-02-27T17:42:32.691Z,31.95
2018-02-27T17:45:00.258Z,20.30
2018-02-27T17:47:27.868Z,18.77
2018-02-27T17:49:55.367Z,23.33
2018-02-27T17:52:22.926Z,18.20
2018-02-27T17:54:50.394Z,24.92
2018-02-27T17:57:17.874Z,25.98
2018-02-27T17:59:46.110Z,23.70
2018-02-27T18:02:13.628Z,18.27
2018-02-27T18:04:41.088Z,24.05
2018-02-27T18:07:08.584Z,26.35
2018-02-27T18:09:36.040Z,24.63
2018-02-27T18:12:03.512Z,25.65
2018-02-27T18:14:31.752Z,22.95
2018-02-27T18:16:59.229Z,24.70
2018-02-27T18:19:26.786Z,21.87
2018-02-27T18:21:54.265Z,26.33
2018-02-27T18:24:22.530Z,27.42
2018-02-27T18:26:49.998Z,20.73
2018-02-27T18:29:18.250Z,19.67
2018-02-27T18:31:45.720Z,18.00
2018-02-27T18:34:13.430Z,23.48
2018-02-27T18:36:40.904Z,36.88
2018-02-27T18:39:08.384Z,25.62
2018-02-27T18:41:36.628Z,18.42
2018-02-27T18:44:04.279Z,25.62
2018-02-27T18:46:32.388Z,24.23
2018-02-27T18:48:59.970Z,22.52
2018-02-27T18:51:28.215Z,28.70
2018-02-27T18:53:55.676Z,22.92
2018-02-27T18:56:23.160Z,27.00
2018-02-27T18:58:51.400Z,24.75
2018-02-27T19:01:18.977Z,34.17
2018-02-27T19:03:46.440Z,19.17
2018-02-27T19:06:13.914Z,25.15
2018-02-27T19:08:42.146Z,23.83
2018-02-27T19:11:09.678Z,22.20
2018-02-27T19:13:37.185Z,21.10
2018-02-27T19:16:04.659Z,33.72
2018-02-27T19:18:32.898Z,29.02
2018-02-27T19:21:00.376Z,29.67
2018-02-27T19:23:27.823Z,20.52
2018-02-27T19:25:55.388Z,23.73
2018-02-27T19:28:22.853Z,20.23
2018-02-27T19:30:50.302Z,21.10
2018-02-27T19:33:17.826Z,33.63
2018-02-27T19:35:45.475Z,28.85
2018-02-27T19:38:13.100Z,20.95
2018-02-27T19:40:41.332Z,25.02
2018-02-27T19:43:08.910Z,25.00
2018-02-27T19:45:36.382Z,24.90
2018-02-27T19:48:04.659Z,34.28
2018-02-27T19:50:32.122Z,24.65
2018-02-27T19:53:00.380Z,30.83
2018-02-27T19:55:27.850Z,23.50
2018-02-27T19:57:56.117Z,23.90
2018-02-27T20:00:23.928Z,19.95
2018-02-27T20:02:51.488Z,19.05
2018-02-27T20:05:19.251Z,20.52
2018-02-27T20:07:46.745Z,27.02
2018-02-27T20:10:14.234Z,21.70
2018-02-27T20:12:42.473Z,30.90
2018-02-27T20:15:10.038Z,24.45
2018-02-27T20:17:43.202Z,23.17
2018-02-27T20:20:10.723Z,33.40
2018-02-27T20:22:44.562Z,25.55
2018-02-27T20:25:12.095Z,27.45
2018-02-27T20:27:39.570Z,24.00
2018-02-27T20:30:07.042Z,26.92
2018-02-27T20:32:34.501Z,27.73
2018-02-27T20:35:02.048Z,26.83
2018-02-27T20:37:29.562Z,24.52
2018-02-27T20:39:57.799Z,25.48
2018-02-27T20:42:25.294Z,25.10
2018-02-27T20:44:53.529Z,34.05
2018-02-27T20:47:20.996Z,25.02
2018-02-27T20:49:48.448Z,19.35
2018-02-27T20:52:15.912Z,23.23
2018-02-27T20:54:43.408Z,18.10
2018-02-27T20:57:11.709Z,14.65
2018-02-27T20:59:39.267Z,22.15
2018-02-27T21:02:06.740Z,20.08
2018-02-27T21:04:34.201Z,17.92
2018-02-27T21:07:01.686Z,19.85
2018-02-27T21:09:29.153Z,21.48
2018-02-27T21:11:56.635Z,25.45
2018-02-27T21:14:24.092Z,10.07
2018-02-27T21:16:51.581Z,16.10
2018-02-27T21:19:19.039Z,14.57
2018-02-27T21:21:46.515Z,19.70
2018-02-27T21:24:14.076Z,22.60
2018-02-27T21:26:41.637Z,16.02
2018-02-27T21:29:09.095Z,20.73
2018-02-27T21:31:36.676Z,17.90
2018-02-27T21:34:04.897Z,19.50
2018-02-27T21:36:32.388Z,24.42
2018-02-27T21:38:59.954Z,17.60
2018-02-27T21:41:27.409Z,15.80
2018-02-27T21:43:54.868Z,22.33
2018-02-27T21:46:22.353Z,22.90
2018-02-27T21:48:50.576Z,13.73
2018-02-27T21:51:18.032Z,16.02
2018-02-27T21:53:45.502Z,16.90
2018-02-27T21:56:12.957Z,13.90
2018-02-27T21:58:40.437Z,19.80
2018-02-27T22:01:08.678Z,21.50
2018-02-27T22:03:36.176Z,20.55
2018-02-27T22:06:04.432Z,21.25
2018-02-27T22:08:31.921Z,21.00
2018-02-27T22:10:59.378Z,16.92
2018-02-27T22:13:26.847Z,20.37
2018-02-27T22:15:54.317Z,26.17
2018-02-27T22:18:21.781Z,16.23
2018-02-27T22:20:49.260Z,16.05
2018-02-27T22:23:16.721Z,16.58
2018-02-27T22:25:44.200Z,20.62
2018-02-27T22:28:12.447Z,18.35
2018-02-27T22:30:39.909Z,14.75
2018-02-27T22:33:07.400Z,26.50
2018-02-27T22:35:35.647Z,23.83
2018-02-27T22:38:03.132Z,21.00
2018-02-27T22:40:31.483Z,18.87
2018-02-27T22:42:58.935Z,14.70
2018-02-27T22:45:26.410Z,28.90
2018-02-27T22:47:54.680Z,26.90
2018-02-27T22:50:22.917Z,25.95
2018-02-27T22:52:50.389Z,22.20
2018-02-27T22:55:17.854Z,21.75
2018-02-27T22:57:45.335Z,22.08
2018-02-27T23:00:13.588Z,18.73
2018-02-27T23:02:41.129Z,31.55
2018-02-27T23:05:08.586Z,28.42
2018-02-27T23:07:36.165Z,22.15
2018-02-27T23:10:03.630Z,27.55
2018-02-27T23:12:31.097Z,22.90
2018-02-27T23:14:59.334Z,19.85
2018-02-27T23:17:27.009Z,27.90
2018-02-27T23:19:54.477Z,29.63
2018-02-27T23:22:22.025Z,26.15
2018-02-27T23:24:50.763Z,24.05
2018-02-27T23:27:18.636Z,28.60
2018-02-27T23:29:46.190Z,27.02
2018-02-27T23:32:13.658Z,27.25
2018-02-27T23:34:44.843Z,20.85
2018-02-27T23:37:12.351Z,24.30
2018-02-27T23:39:39.827Z,24.02
2018-02-27T23:42:07.306Z,27.30
2018-02-27T23:44:34.872Z,27.45
2018-02-27T23:47:02.435Z,17.73
2018-02-27T23:49:29.933Z,28.40
2018-02-27T23:51:57.394Z,20.10
2018-02-27T23:54:24.870Z,19.90
2018-02-27T23:56:52.332Z,31.90
2018-02-27T23:59:19.873Z,27.05
